LGKR Airport Information

Runway Information
Runway 17 Length 7792 ft width 148 ft
Elevation 5 ft Threshold 1348 ft Heading 169
Runway 35 Length 7792 ft Width 148 ft
Elevation 5 ft Threshold 213 ft Heading 349
Airport Frequencies
Type A/G Name KERKIRA RD Frequency 563.7 MHZ
Type APP Name KERKIRA AP Frequency 118.075 MHZ
Type ATIS Name ATIS Frequency 126.35 MHZ
Type TWR Name KERKIRA TW Frequency 120.85 MHZ
Airport Navaids
Type VOR-DME Name Garitsa Frequency 108800 KHZ
Type NDB Name Kerkira Frequency 403 KHZ
Type VOR-DME Name Kerkira Frequency 114700 KHZ
Airport Weather Information & NOTAM
ADDS - METARS form results

(0719 UTC 22 November 2019)
Data provider http://aviationweather.gov/metar/data/
 
METAR text: LGKR 220650Z 00000KT 9999 FEW025 11/10 Q1015 NOSIG
Conditions at: LGKR (IOANNIS KAPODIST, GR) observed 0650 UTC 22 November 2019
Temperature: 11.0°C (52°F)
Dewpoint: 10.0°C (50°F) [RH = 94%]
Pressure (altimeter): 29.97 inches Hg (1015.0 mb)
Winds: calm
Visibility: 6 or more miles (10+ km)
Ceiling: at least 12,000 feet AGL
Clouds: few clouds at 2500 feet AGL
Weather: no significant weather observed at this time

METAR text: LGKR 220620Z VRB02KT 9999 FEW020 09/09 Q1015 NOSIG
Conditions at: LGKR (IOANNIS KAPODIST, GR) observed 0620 UTC 22 November 2019
Temperature: 9.0°C (48°F)
Dewpoint: 9.0°C (48°F) [RH = 100%]
Pressure (altimeter): 29.97 inches Hg (1015.0 mb)
Winds: variable direction winds at 2 MPH (2 knots; 1.0 m/s)
Visibility: 6 or more miles (10+ km)
Ceiling: at least 12,000 feet AGL
Clouds: few clouds at 2000 feet AGL
Weather: no significant weather observed at this time

Forecast for: LGKR (IOANNIS KAPODIST, GR)
Text: TAF LGKR 220500Z 2206/2306 VRB05KT 9999 FEW018 SCT030
Forecast period: 0600 UTC 22 November 2019 to 0600 UTC 23 November 2019
Forecast type: FROM: standard forecast or significant change
Winds: variable direction winds at 6 MPH (5 knots; 2.6 m/s)
Visibility: 6 or more miles 10+ km)
Ceiling: at least 12,000 feet AGL
Clouds: few clouds at 1800 feet AGL
scattered clouds at 3000 feet AGL
Weather: no significant weather forecast for this period